Forside
METAR-TAF:

METAR-TAF

Lufthavne :

Preston, England

Breddekreds: 53-44-42N, længdekreds: 2-53-02W, højde: 17 m

Aktuelle vejr

Denne rapport blev lavet for 2 timer og 25 minutter siden, kl. 16:20 UTC
Vind 7 kt fra vest, varierende mellem vest og nordvest
Temperatur 7°C
Fugtighed 76%
Tryk 1011 hPa
Sigt 10 km eller mere
Spredte skyer i en højde af 2600 ft
byger i nærheden

METAR: EGNO 021620Z 28007KT 260V320 9999 VCSH SCT026 07/03 Q1011

Tid: 18:45 (18:45 UTC)

Vejrudsigter

Denne rapport blev lavet for 4 timer og 42 minutter siden, kl. 14:03 UTC
Foreløbig gælder fra 02 på 15 UTC til 02 på 19 UTC
Vind 13 kt fra vestnordvest
Sigt 10 km eller mere
Spredte skyer i en højde af 2500 ft
Midlertidig
fra 02 på 15 UTC til 02 på 19 UTC
Sigt: 7000 m
Brudte skyer i en højde af 1400 ft
regnbyger
Sandsynlighed 30% :
Midlertidig
fra 02 på 15 UTC til 02 på 19 UTC
Vind 16 kt fra vestnordvest med vindstød på up til 26 kt

TAF: EGNO 021403Z 0215/0219 29013KT 9999 SCT025 TEMPO 0215/0219 7000 SHRA BKN014 PROB30 TEMPO 0215/0219 30016G26KT

Vejrobservationer og prognoser fra mere end 4000 lufthavne (METAR og TAF).

De gule og røde prikker repræsenterer de meteorologiske stationer.

Flyt musen over at se navnet på stationen.

Så klik over at se vejr observationer og prognoser.

At skifte det kort: Klik på de grønne knapper med et sort kors for at zoome ind; på den grønne knap med en bindestreg for at zoome ud; eller på de grønne pile for tilstødende kort.


METAR-TAF: